sensor_id;sensor_type;location;lat;lon;timestamp;P1;durP1;ratioP1;P2;durP2;ratioP2
42864;SDS011;28511;42.680;23.252;2022-07-29T00:01:44;18.73;;;13.20;;
42864;SDS011;28511;42.680;23.252;2022-07-29T00:04:09;18.08;;;12.73;;
42864;SDS011;28511;42.680;23.252;2022-07-29T00:06:35;19.83;;;13.95;;
42864;SDS011;28511;42.680;23.252;2022-07-29T00:09:00;18.50;;;13.27;;
42864;SDS011;28511;42.680;23.252;2022-07-29T00:11:25;24.35;;;13.70;;
42864;SDS011;28511;42.680;23.252;2022-07-29T00:13:50;18.37;;;13.20;;
42864;SDS011;28511;42.680;23.252;2022-07-29T00:16:16;17.50;;;12.53;;
42864;SDS011;28511;42.680;23.252;2022-07-29T00:18:41;15.80;;;11.52;;
42864;SDS011;28511;42.680;23.252;2022-07-29T00:21:06;23.70;;;11.83;;
42864;SDS011;28511;42.680;23.252;2022-07-29T00:23:31;20.90;;;12.35;;
42864;SDS011;28511;42.680;23.252;2022-07-29T00:25:57;17.90;;;12.17;;
42864;SDS011;28511;42.680;23.252;2022-07-29T00:28:22;15.65;;;10.70;;
42864;SDS011;28511;42.680;23.252;2022-07-29T00:30:47;21.75;;;11.80;;
42864;SDS011;28511;42.680;23.252;2022-07-29T00:33:13;18.60;;;11.33;;
42864;SDS011;28511;42.680;23.252;2022-07-29T00:35:38;16.73;;;11.07;;
42864;SDS011;28511;42.680;23.252;2022-07-29T00:38:10;18.83;;;11.45;;
42864;SDS011;28511;42.680;23.252;2022-07-29T00:40:35;18.50;;;12.80;;
42864;SDS011;28511;42.680;23.252;2022-07-29T00:43:00;16.15;;;11.85;;
42864;SDS011;28511;42.680;23.252;2022-07-29T00:45:26;19.08;;;12.57;;
42864;SDS011;28511;42.680;23.252;2022-07-29T00:47:52;18.20;;;12.35;;
42864;SDS011;28511;42.680;23.252;2022-07-29T00:50:17;18.77;;;13.15;;
42864;SDS011;28511;42.680;23.252;2022-07-29T00:52:42;19.70;;;12.57;;
42864;SDS011;28511;42.680;23.252;2022-07-29T00:55:09;18.73;;;13.38;;
42864;SDS011;28511;42.680;23.252;2022-07-29T00:57:35;20.23;;;12.48;;
42864;SDS011;28511;42.680;23.252;2022-07-29T01:00:01;18.17;;;12.27;;
42864;SDS011;28511;42.680;23.252;2022-07-29T01:02:27;19.80;;;13.32;;
42864;SDS011;28511;42.680;23.252;2022-07-29T01:04:52;16.35;;;11.18;;
42864;SDS011;28511;42.680;23.252;2022-07-29T01:07:18;17.05;;;12.13;;
42864;SDS011;28511;42.680;23.252;2022-07-29T01:09:43;17.77;;;12.30;;
42864;SDS011;28511;42.680;23.252;2022-07-29T01:12:09;19.02;;;13.32;;
42864;SDS011;28511;42.680;23.252;2022-07-29T01:14:35;19.65;;;12.10;;
42864;SDS011;28511;42.680;23.252;2022-07-29T01:17:10;21.20;;;12.55;;
42864;SDS011;28511;42.680;23.252;2022-07-29T01:28:13;22.20;;;13.88;;
42864;SDS011;28511;42.680;23.252;2022-07-29T01:30:33;18.58;;;13.13;;
42864;SDS011;28511;42.680;23.252;2022-07-29T01:33:03;19.30;;;14.00;;
42864;SDS011;28511;42.680;23.252;2022-07-29T01:35:36;20.48;;;14.23;;
42864;SDS011;28511;42.680;23.252;2022-07-29T01:38:22;20.95;;;14.32;;
42864;SDS011;28511;42.680;23.252;2022-07-29T01:40:49;23.48;;;13.75;;
42864;SDS011;28511;42.680;23.252;2022-07-29T01:43:17;25.00;;;13.85;;
42864;SDS011;28511;42.680;23.252;2022-07-29T01:45:48;20.67;;;13.88;;
42864;SDS011;28511;42.680;23.252;2022-07-29T01:48:22;27.88;;;14.23;;
42864;SDS011;28511;42.680;23.252;2022-07-29T01:50:50;21.35;;;15.05;;
42864;SDS011;28511;42.680;23.252;2022-07-29T01:53:26;20.35;;;14.27;;
42864;SDS011;28511;42.680;23.252;2022-07-29T01:55:55;21.15;;;13.35;;
42864;SDS011;28511;42.680;23.252;2022-07-29T01:58:21;22.98;;;14.18;;
42864;SDS011;28511;42.680;23.252;2022-07-29T02:00:48;20.63;;;12.18;;
42864;SDS011;28511;42.680;23.252;2022-07-29T02:03:13;18.70;;;13.27;;
42864;SDS011;28511;42.680;23.252;2022-07-29T02:05:41;23.92;;;12.45;;
42864;SDS011;28511;42.680;23.252;2022-07-29T02:08:07;20.85;;;12.75;;
42864;SDS011;28511;42.680;23.252;2022-07-29T02:10:33;18.83;;;12.35;;
42864;SDS011;28511;42.680;23.252;2022-07-29T02:12:59;23.17;;;12.77;;
42864;SDS011;28511;42.680;23.252;2022-07-29T02:15:26;20.77;;;12.82;;
42864;SDS011;28511;42.680;23.252;2022-07-29T02:17:56;19.10;;;12.45;;
42864;SDS011;28511;42.680;23.252;2022-07-29T02:20:23;19.52;;;12.63;;
42864;SDS011;28511;42.680;23.252;2022-07-29T02:22:50;20.30;;;13.20;;
42864;SDS011;28511;42.680;23.252;2022-07-29T02:25:16;17.58;;;11.93;;
42864;SDS011;28511;42.680;23.252;2022-07-29T02:27:43;21.75;;;13.52;;
42864;SDS011;28511;42.680;23.252;2022-07-29T02:30:09;19.58;;;13.02;;
42864;SDS011;28511;42.680;23.252;2022-07-29T02:32:36;21.88;;;13.32;;
42864;SDS011;28511;42.680;23.252;2022-07-29T02:35:02;19.88;;;12.82;;
42864;SDS011;28511;42.680;23.252;2022-07-29T02:37:28;24.75;;;13.63;;
42864;SDS011;28511;42.680;23.252;2022-07-29T02:39:54;19.65;;;12.05;;
42864;SDS011;28511;42.680;23.252;2022-07-29T02:42:21;19.20;;;13.50;;
42864;SDS011;28511;42.680;23.252;2022-07-29T02:44:47;21.40;;;13.60;;
42864;SDS011;28511;42.680;23.252;2022-07-29T02:47:30;19.33;;;12.00;;
42864;SDS011;28511;42.680;23.252;2022-07-29T02:50:00;22.35;;;12.25;;
42864;SDS011;28511;42.680;23.252;2022-07-29T02:54:56;23.85;;;13.90;;
42864;SDS011;28511;42.680;23.252;2022-07-29T02:57:33;21.83;;;12.93;;
42864;SDS011;28511;42.680;23.252;2022-07-29T03:00:03;17.40;;;13.15;;
42864;SDS011;28511;42.680;23.252;2022-07-29T03:02:30;20.13;;;13.80;;
42864;SDS011;28511;42.680;23.252;2022-07-29T03:04:58;22.17;;;13.05;;
42864;SDS011;28511;42.680;23.252;2022-07-29T03:07:25;20.42;;;12.90;;
42864;SDS011;28511;42.680;23.252;2022-07-29T03:09:51;19.20;;;13.70;;
42864;SDS011;28511;42.680;23.252;2022-07-29T03:12:17;23.27;;;14.30;;
42864;SDS011;28511;42.680;23.252;2022-07-29T03:14:43;20.38;;;13.80;;
42864;SDS011;28511;42.680;23.252;2022-07-29T03:17:09;19.17;;;13.68;;
42864;SDS011;28511;42.680;23.252;2022-07-29T03:19:34;20.05;;;14.20;;
42864;SDS011;28511;42.680;23.252;2022-07-29T03:22:00;26.20;;;14.82;;
42864;SDS011;28511;42.680;23.252;2022-07-29T03:24:30;23.33;;;14.57;;
42864;SDS011;28511;42.680;23.252;2022-07-29T03:26:56;31.25;;;16.25;;
42864;SDS011;28511;42.680;23.252;2022-07-29T03:29:21;29.13;;;15.75;;
42864;SDS011;28511;42.680;23.252;2022-07-29T03:31:47;24.95;;;14.98;;
42864;SDS011;28511;42.680;23.252;2022-07-29T03:34:12;23.88;;;16.33;;
42864;SDS011;28511;42.680;23.252;2022-07-29T03:36:38;24.73;;;16.90;;
42864;SDS011;28511;42.680;23.252;2022-07-29T03:39:03;29.42;;;16.35;;
42864;SDS011;28511;42.680;23.252;2022-07-29T03:41:29;24.60;;;16.90;;
42864;SDS011;28511;42.680;23.252;2022-07-29T03:43:55;26.70;;;16.65;;
42864;SDS011;28511;42.680;23.252;2022-07-29T03:46:22;23.80;;;15.70;;
42864;SDS011;28511;42.680;23.252;2022-07-29T03:48:48;23.92;;;16.60;;
42864;SDS011;28511;42.680;23.252;2022-07-29T03:51:15;30.70;;;17.88;;
42864;SDS011;28511;42.680;23.252;2022-07-29T03:53:40;26.08;;;17.02;;
42864;SDS011;28511;42.680;23.252;2022-07-29T03:56:06;27.33;;;16.92;;
42864;SDS011;28511;42.680;23.252;2022-07-29T03:58:31;25.80;;;15.65;;
42864;SDS011;28511;42.680;23.252;2022-07-29T04:00:57;24.63;;;17.92;;
42864;SDS011;28511;42.680;23.252;2022-07-29T04:03:23;24.15;;;16.17;;
42864;SDS011;28511;42.680;23.252;2022-07-29T04:06:00;27.30;;;16.13;;
42864;SDS011;28511;42.680;23.252;2022-07-29T04:08:25;24.27;;;16.10;;
42864;SDS011;28511;42.680;23.252;2022-07-29T04:10:51;23.40;;;15.73;;
42864;SDS011;28511;42.680;23.252;2022-07-29T04:13:17;21.70;;;14.68;;
42864;SDS011;28511;42.680;23.252;2022-07-29T04:15:43;24.60;;;13.90;;
42864;SDS011;28511;42.680;23.252;2022-07-29T04:18:08;18.10;;;13.52;;
42864;SDS011;28511;42.680;23.252;2022-07-29T04:20:34;16.85;;;12.13;;
42864;SDS011;28511;42.680;23.252;2022-07-29T04:22:59;21.10;;;13.13;;
42864;SDS011;28511;42.680;23.252;2022-07-29T04:25:24;17.70;;;11.53;;
42864;SDS011;28511;42.680;23.252;2022-07-29T04:27:49;20.97;;;12.30;;
42864;SDS011;28511;42.680;23.252;2022-07-29T04:30:28;17.80;;;11.70;;
42864;SDS011;28511;42.680;23.252;2022-07-29T04:32:53;19.88;;;11.40;;
42864;SDS011;28511;42.680;23.252;2022-07-29T04:35:19;17.33;;;11.50;;
42864;SDS011;28511;42.680;23.252;2022-07-29T04:37:44;15.45;;;12.05;;
42864;SDS011;28511;42.680;23.252;2022-07-29T04:40:09;16.67;;;12.23;;
42864;SDS011;28511;42.680;23.252;2022-07-29T04:42:35;15.98;;;12.60;;
42864;SDS011;28511;42.680;23.252;2022-07-29T04:45:00;19.80;;;12.47;;
42864;SDS011;28511;42.680;23.252;2022-07-29T04:47:25;16.23;;;12.23;;
42864;SDS011;28511;42.680;23.252;2022-07-29T04:49:51;18.25;;;12.07;;
42864;SDS011;28511;42.680;23.252;2022-07-29T04:52:16;18.80;;;11.63;;
42864;SDS011;28511;42.680;23.252;2022-07-29T04:54:41;18.03;;;11.33;;
42864;SDS011;28511;42.680;23.252;2022-07-29T04:57:06;18.57;;;12.87;;
42864;SDS011;28511;42.680;23.252;2022-07-29T04:59:32;16.80;;;11.13;;
42864;SDS011;28511;42.680;23.252;2022-07-29T05:01:57;15.70;;;10.50;;
42864;SDS011;28511;42.680;23.252;2022-07-29T05:04:22;16.50;;;11.47;;
42864;SDS011;28511;42.680;23.252;2022-07-29T05:06:48;16.73;;;11.82;;
42864;SDS011;28511;42.680;23.252;2022-07-29T05:09:13;14.82;;;11.20;;
42864;SDS011;28511;42.680;23.252;2022-07-29T05:11:38;17.23;;;11.13;;
42864;SDS011;28511;42.680;23.252;2022-07-29T05:14:04;13.93;;;11.27;;
42864;SDS011;28511;42.680;23.252;2022-07-29T05:16:29;18.08;;;12.35;;
42864;SDS011;28511;42.680;23.252;2022-07-29T05:18:55;19.42;;;11.57;;
42864;SDS011;28511;42.680;23.252;2022-07-29T05:21:20;15.67;;;11.73;;
42864;SDS011;28511;42.680;23.252;2022-07-29T05:23:45;16.73;;;11.83;;
42864;SDS011;28511;42.680;23.252;2022-07-29T05:26:11;16.57;;;10.77;;
42864;SDS011;28511;42.680;23.252;2022-07-29T05:28:36;16.63;;;10.60;;
42864;SDS011;28511;42.680;23.252;2022-07-29T05:31:02;16.65;;;11.15;;
42864;SDS011;28511;42.680;23.252;2022-07-29T05:33:28;16.83;;;11.05;;
42864;SDS011;28511;42.680;23.252;2022-07-29T05:35:53;16.03;;;11.47;;
42864;SDS011;28511;42.680;23.252;2022-07-29T05:38:18;17.13;;;10.18;;
42864;SDS011;28511;42.680;23.252;2022-07-29T05:40:44;14.82;;;10.73;;
42864;SDS011;28511;42.680;23.252;2022-07-29T05:43:09;15.07;;;10.98;;
42864;SDS011;28511;42.680;23.252;2022-07-29T05:45:34;13.77;;;10.73;;
42864;SDS011;28511;42.680;23.252;2022-07-29T05:47:59;15.63;;;10.77;;
42864;SDS011;28511;42.680;23.252;2022-07-29T05:50:25;14.07;;;10.90;;
42864;SDS011;28511;42.680;23.252;2022-07-29T05:52:50;16.67;;;11.23;;
42864;SDS011;28511;42.680;23.252;2022-07-29T05:55:15;16.67;;;11.80;;
42864;SDS011;28511;42.680;23.252;2022-07-29T05:57:41;15.70;;;10.40;;
42864;SDS011;28511;42.680;23.252;2022-07-29T06:00:08;15.73;;;11.80;;
42864;SDS011;28511;42.680;23.252;2022-07-29T06:02:34;14.15;;;10.40;;
42864;SDS011;28511;42.680;23.252;2022-07-29T06:04:59;16.87;;;11.87;;
42864;SDS011;28511;42.680;23.252;2022-07-29T06:07:24;16.10;;;12.30;;
42864;SDS011;28511;42.680;23.252;2022-07-29T06:09:49;17.20;;;11.13;;
42864;SDS011;28511;42.680;23.252;2022-07-29T06:12:15;16.37;;;11.33;;
42864;SDS011;28511;42.680;23.252;2022-07-29T06:14:40;14.40;;;11.40;;
42864;SDS011;28511;42.680;23.252;2022-07-29T06:17:05;18.30;;;12.70;;
42864;SDS011;28511;42.680;23.252;2022-07-29T06:19:31;16.73;;;13.00;;
42864;SDS011;28511;42.680;23.252;2022-07-29T06:21:56;15.50;;;13.23;;
42864;SDS011;28511;42.680;23.252;2022-07-29T06:24:22;17.27;;;13.85;;
42864;SDS011;28511;42.680;23.252;2022-07-29T06:26:48;16.98;;;12.90;;
42864;SDS011;28511;42.680;23.252;2022-07-29T06:29:13;18.08;;;13.18;;
42864;SDS011;28511;42.680;23.252;2022-07-29T06:31:38;15.97;;;12.10;;
42864;SDS011;28511;42.680;23.252;2022-07-29T06:34:04;16.98;;;11.30;;
42864;SDS011;28511;42.680;23.252;2022-07-29T06:36:29;17.15;;;11.68;;
42864;SDS011;28511;42.680;23.252;2022-07-29T06:38:55;15.70;;;12.02;;
42864;SDS011;28511;42.680;23.252;2022-07-29T06:41:20;18.25;;;11.48;;
42864;SDS011;28511;42.680;23.252;2022-07-29T06:43:46;16.95;;;9.75;;
42864;SDS011;28511;42.680;23.252;2022-07-29T06:46:12;15.13;;;9.55;;
42864;SDS011;28511;42.680;23.252;2022-07-29T06:48:39;12.25;;;7.35;;
42864;SDS011;28511;42.680;23.252;2022-07-29T06:51:05;10.00;;;7.35;;
42864;SDS011;28511;42.680;23.252;2022-07-29T06:53:31;12.18;;;6.35;;
42864;SDS011;28511;42.680;23.252;2022-07-29T06:55:59;10.25;;;6.97;;
42864;SDS011;28511;42.680;23.252;2022-07-29T06:58:28;9.30;;;6.22;;
42864;SDS011;28511;42.680;23.252;2022-07-29T07:00:54;9.23;;;5.03;;
42864;SDS011;28511;42.680;23.252;2022-07-29T07:03:19;12.35;;;5.60;;
42864;SDS011;28511;42.680;23.252;2022-07-29T07:05:45;9.48;;;6.25;;
42864;SDS011;28511;42.680;23.252;2022-07-29T07:08:11;10.18;;;5.90;;
42864;SDS011;28511;42.680;23.252;2022-07-29T07:10:36;12.18;;;6.10;;
42864;SDS011;28511;42.680;23.252;2022-07-29T07:13:02;10.00;;;5.85;;
42864;SDS011;28511;42.680;23.252;2022-07-29T07:15:29;9.02;;;6.20;;
42864;SDS011;28511;42.680;23.252;2022-07-29T07:17:56;11.43;;;5.95;;
42864;SDS011;28511;42.680;23.252;2022-07-29T07:20:26;10.25;;;5.72;;
42864;SDS011;28511;42.680;23.252;2022-07-29T07:22:52;9.70;;;5.93;;
42864;SDS011;28511;42.680;23.252;2022-07-29T07:25:17;9.35;;;5.72;;
42864;SDS011;28511;42.680;23.252;2022-07-29T07:27:44;8.98;;;5.90;;
42864;SDS011;28511;42.680;23.252;2022-07-29T07:30:10;11.13;;;6.43;;
42864;SDS011;28511;42.680;23.252;2022-07-29T07:32:37;9.45;;;5.97;;
42864;SDS011;28511;42.680;23.252;2022-07-29T07:35:03;9.60;;;5.70;;
42864;SDS011;28511;42.680;23.252;2022-07-29T07:37:29;13.45;;;5.90;;
42864;SDS011;28511;42.680;23.252;2022-07-29T07:39:55;8.90;;;5.90;;
42864;SDS011;28511;42.680;23.252;2022-07-29T07:42:22;8.23;;;5.97;;
42864;SDS011;28511;42.680;23.252;2022-07-29T07:44:47;7.57;;;5.80;;
42864;SDS011;28511;42.680;23.252;2022-07-29T07:47:15;9.48;;;5.63;;
42864;SDS011;28511;42.680;23.252;2022-07-29T07:49:45;10.13;;;5.93;;
42864;SDS011;28511;42.680;23.252;2022-07-29T07:52:11;10.98;;;5.97;;
42864;SDS011;28511;42.680;23.252;2022-07-29T07:54:38;11.70;;;5.75;;
42864;SDS011;28511;42.680;23.252;2022-07-29T07:57:03;8.63;;;5.10;;
42864;SDS011;28511;42.680;23.252;2022-07-29T07:59:29;7.63;;;5.72;;
42864;SDS011;28511;42.680;23.252;2022-07-29T08:01:54;9.45;;;6.30;;
42864;SDS011;28511;42.680;23.252;2022-07-29T08:04:20;9.20;;;6.63;;
42864;SDS011;28511;42.680;23.252;2022-07-29T08:06:52;8.70;;;6.35;;
42864;SDS011;28511;42.680;23.252;2022-07-29T08:09:21;8.02;;;5.45;;
42864;SDS011;28511;42.680;23.252;2022-07-29T08:11:47;7.60;;;5.50;;
42864;SDS011;28511;42.680;23.252;2022-07-29T08:14:12;7.13;;;5.28;;
42864;SDS011;28511;42.680;23.252;2022-07-29T08:16:39;10.30;;;5.38;;
42864;SDS011;28511;42.680;23.252;2022-07-29T08:19:05;6.82;;;5.20;;
42864;SDS011;28511;42.680;23.252;2022-07-29T08:21:30;8.60;;;5.40;;
42864;SDS011;28511;42.680;23.252;2022-07-29T08:23:55;7.82;;;5.07;;
42864;SDS011;28511;42.680;23.252;2022-07-29T08:26:41;8.15;;;4.90;;
42864;SDS011;28511;42.680;23.252;2022-07-29T08:29:07;7.97;;;5.32;;
42864;SDS011;28511;42.680;23.252;2022-07-29T08:31:33;7.75;;;5.13;;
42864;SDS011;28511;42.680;23.252;2022-07-29T08:34:00;7.65;;;4.90;;
42864;SDS011;28511;42.680;23.252;2022-07-29T08:36:27;9.15;;;5.75;;
42864;SDS011;28511;42.680;23.252;2022-07-29T08:38:53;7.78;;;5.35;;
42864;SDS011;28511;42.680;23.252;2022-07-29T08:41:18;6.88;;;4.63;;
42864;SDS011;28511;42.680;23.252;2022-07-29T08:43:46;8.98;;;4.82;;
42864;SDS011;28511;42.680;23.252;2022-07-29T08:46:12;9.13;;;5.15;;
42864;SDS011;28511;42.680;23.252;2022-07-29T08:48:39;9.52;;;5.40;;
42864;SDS011;28511;42.680;23.252;2022-07-29T08:51:05;11.18;;;5.28;;
42864;SDS011;28511;42.680;23.252;2022-07-29T08:53:32;7.60;;;4.70;;
42864;SDS011;28511;42.680;23.252;2022-07-29T08:55:58;8.27;;;4.57;;
42864;SDS011;28511;42.680;23.252;2022-07-29T08:58:24;8.80;;;4.60;;
42864;SDS011;28511;42.680;23.252;2022-07-29T09:00:54;5.25;;;4.45;;
42864;SDS011;28511;42.680;23.252;2022-07-29T09:03:20;8.00;;;5.10;;
42864;SDS011;28511;42.680;23.252;2022-07-29T09:05:47;7.63;;;4.15;;
42864;SDS011;28511;42.680;23.252;2022-07-29T09:08:13;8.43;;;4.32;;
42864;SDS011;28511;42.680;23.252;2022-07-29T09:10:39;6.93;;;5.07;;
42864;SDS011;28511;42.680;23.252;2022-07-29T09:13:05;6.32;;;4.80;;
42864;SDS011;28511;42.680;23.252;2022-07-29T09:15:31;7.72;;;4.68;;
42864;SDS011;28511;42.680;23.252;2022-07-29T09:17:56;6.35;;;4.55;;
42864;SDS011;28511;42.680;23.252;2022-07-29T09:20:24;4.72;;;4.22;;
42864;SDS011;28511;42.680;23.252;2022-07-29T09:22:52;6.35;;;4.70;;
42864;SDS011;28511;42.680;23.252;2022-07-29T09:25:34;9.77;;;5.10;;
42864;SDS011;28511;42.680;23.252;2022-07-29T09:28:09;5.22;;;4.25;;
42864;SDS011;28511;42.680;23.252;2022-07-29T09:30:35;5.90;;;4.38;;
42864;SDS011;28511;42.680;23.252;2022-07-29T09:33:02;6.28;;;4.53;;
42864;SDS011;28511;42.680;23.252;2022-07-29T09:35:29;8.35;;;5.50;;
42864;SDS011;28511;42.680;23.252;2022-07-29T09:37:55;8.73;;;5.10;;
42864;SDS011;28511;42.680;23.252;2022-07-29T09:40:21;7.38;;;4.97;;
42864;SDS011;28511;42.680;23.252;2022-07-29T09:42:47;8.45;;;4.85;;
42864;SDS011;28511;42.680;23.252;2022-07-29T09:45:13;10.48;;;4.97;;
42864;SDS011;28511;42.680;23.252;2022-07-29T09:47:50;6.38;;;4.30;;
42864;SDS011;28511;42.680;23.252;2022-07-29T09:50:15;6.53;;;4.60;;
42864;SDS011;28511;42.680;23.252;2022-07-29T09:52:47;6.07;;;4.65;;
42864;SDS011;28511;42.680;23.252;2022-07-29T09:55:13;10.50;;;4.28;;
42864;SDS011;28511;42.680;23.252;2022-07-29T09:57:39;11.70;;;5.07;;
42864;SDS011;28511;42.680;23.252;2022-07-29T10:00:20;8.65;;;4.68;;
42864;SDS011;28511;42.680;23.252;2022-07-29T10:02:48;6.03;;;4.35;;
42864;SDS011;28511;42.680;23.252;2022-07-29T10:07:54;10.57;;;4.60;;
42864;SDS011;28511;42.680;23.252;2022-07-29T10:10:21;7.53;;;4.90;;
42864;SDS011;28511;42.680;23.252;2022-07-29T10:12:48;11.45;;;5.38;;
42864;SDS011;28511;42.680;23.252;2022-07-29T10:15:14;9.57;;;5.25;;
42864;SDS011;28511;42.680;23.252;2022-07-29T10:17:41;10.70;;;5.75;;
42864;SDS011;28511;42.680;23.252;2022-07-29T10:20:08;9.27;;;4.85;;
42864;SDS011;28511;42.680;23.252;2022-07-29T10:22:33;14.15;;;4.90;;
42864;SDS011;28511;42.680;23.252;2022-07-29T10:24:59;9.63;;;5.80;;
42864;SDS011;28511;42.680;23.252;2022-07-29T10:27:25;10.63;;;5.28;;
42864;SDS011;28511;42.680;23.252;2022-07-29T10:29:50;8.73;;;5.13;;
42864;SDS011;28511;42.680;23.252;2022-07-29T10:40:36;8.47;;;5.47;;
42864;SDS011;28511;42.680;23.252;2022-07-29T10:43:27;9.70;;;5.35;;
42864;SDS011;28511;42.680;23.252;2022-07-29T10:45:59;7.50;;;5.43;;
42864;SDS011;28511;42.680;23.252;2022-07-29T10:48:26;9.60;;;5.18;;
42864;SDS011;28511;42.680;23.252;2022-07-29T10:51:03;9.68;;;5.80;;
42864;SDS011;28511;42.680;23.252;2022-07-29T10:56:30;10.68;;;5.65;;
42864;SDS011;28511;42.680;23.252;2022-07-29T11:01:42;8.80;;;5.63;;
42864;SDS011;28511;42.680;23.252;2022-07-29T11:04:08;7.13;;;5.13;;
42864;SDS011;28511;42.680;23.252;2022-07-29T11:09:18;7.85;;;5.28;;
42864;SDS011;28511;42.680;23.252;2022-07-29T11:11:46;9.55;;;6.00;;
42864;SDS011;28511;42.680;23.252;2022-07-29T11:14:11;11.43;;;7.10;;
42864;SDS011;28511;42.680;23.252;2022-07-29T11:19:21;15.70;;;6.78;;
42864;SDS011;28511;42.680;23.252;2022-07-29T11:21:47;7.35;;;5.80;;
42864;SDS011;28511;42.680;23.252;2022-07-29T11:24:18;10.55;;;6.50;;
42864;SDS011;28511;42.680;23.252;2022-07-29T11:27:05;7.32;;;5.50;;
42864;SDS011;28511;42.680;23.252;2022-07-29T11:29:32;8.63;;;6.10;;
42864;SDS011;28511;42.680;23.252;2022-07-29T11:32:07;9.93;;;6.13;;
42864;SDS011;28511;42.680;23.252;2022-07-29T11:34:33;8.43;;;5.95;;
42864;SDS011;28511;42.680;23.252;2022-07-29T11:45:02;7.57;;;6.25;;
42864;SDS011;28511;42.680;23.252;2022-07-29T11:47:41;10.40;;;6.28;;
42864;SDS011;28511;42.680;23.252;2022-07-29T11:50:11;12.20;;;5.90;;
42864;SDS011;28511;42.680;23.252;2022-07-29T11:52:38;10.68;;;6.22;;
42864;SDS011;28511;42.680;23.252;2022-07-29T11:55:09;8.27;;;6.35;;
42864;SDS011;28511;42.680;23.252;2022-07-29T11:57:35;7.20;;;5.90;;
42864;SDS011;28511;42.680;23.252;2022-07-29T12:00:01;7.75;;;6.40;;
42864;SDS011;28511;42.680;23.252;2022-07-29T12:02:37;6.07;;;5.05;;
42864;SDS011;28511;42.680;23.252;2022-07-29T12:05:04;9.45;;;5.82;;
42864;SDS011;28511;42.680;23.252;2022-07-29T12:07:31;9.38;;;5.25;;
42864;SDS011;28511;42.680;23.252;2022-07-29T12:09:57;7.35;;;5.60;;
42864;SDS011;28511;42.680;23.252;2022-07-29T12:12:23;7.38;;;6.20;;
42864;SDS011;28511;42.680;23.252;2022-07-29T12:14:48;7.95;;;5.82;;
42864;SDS011;28511;42.680;23.252;2022-07-29T12:17:29;8.90;;;6.20;;
42864;SDS011;28511;42.680;23.252;2022-07-29T12:19:55;8.45;;;5.15;;
42864;SDS011;28511;42.680;23.252;2022-07-29T12:22:28;6.43;;;5.50;;
42864;SDS011;28511;42.680;23.252;2022-07-29T12:24:54;7.93;;;5.75;;
42864;SDS011;28511;42.680;23.252;2022-07-29T12:27:22;8.90;;;5.80;;
42864;SDS011;28511;42.680;23.252;2022-07-29T12:29:58;8.70;;;5.57;;
42864;SDS011;28511;42.680;23.252;2022-07-29T12:32:32;8.35;;;5.80;;
42864;SDS011;28511;42.680;23.252;2022-07-29T12:34:58;9.75;;;6.00;;
42864;SDS011;28511;42.680;23.252;2022-07-29T12:37:24;9.50;;;5.93;;
42864;SDS011;28511;42.680;23.252;2022-07-29T12:39:53;8.73;;;6.43;;
42864;SDS011;28511;42.680;23.252;2022-07-29T12:44:51;7.10;;;5.60;;
42864;SDS011;28511;42.680;23.252;2022-07-29T12:47:19;8.55;;;6.20;;
42864;SDS011;28511;42.680;23.252;2022-07-29T12:49:45;8.95;;;6.07;;
42864;SDS011;28511;42.680;23.252;2022-07-29T12:54:57;8.45;;;5.63;;
42864;SDS011;28511;42.680;23.252;2022-07-29T12:57:22;8.27;;;6.20;;
42864;SDS011;28511;42.680;23.252;2022-07-29T13:00:05;6.97;;;5.35;;
42864;SDS011;28511;42.680;23.252;2022-07-29T13:02:34;10.07;;;6.35;;
42864;SDS011;28511;42.680;23.252;2022-07-29T13:05:01;10.80;;;6.22;;
42864;SDS011;28511;42.680;23.252;2022-07-29T13:07:27;9.27;;;6.15;;
42864;SDS011;28511;42.680;23.252;2022-07-29T13:09:54;8.70;;;6.15;;
42864;SDS011;28511;42.680;23.252;2022-07-29T13:12:34;8.60;;;5.72;;
42864;SDS011;28511;42.680;23.252;2022-07-29T13:15:11;8.77;;;6.00;;
42864;SDS011;28511;42.680;23.252;2022-07-29T13:17:43;10.40;;;6.57;;
42864;SDS011;28511;42.680;23.252;2022-07-29T13:20:15;8.18;;;6.32;;
42864;SDS011;28511;42.680;23.252;2022-07-29T13:22:41;9.23;;;6.90;;
42864;SDS011;28511;42.680;23.252;2022-07-29T13:25:08;12.25;;;6.38;;
42864;SDS011;28511;42.680;23.252;2022-07-29T13:27:35;8.57;;;5.63;;
42864;SDS011;28511;42.680;23.252;2022-07-29T13:30:06;7.72;;;5.43;;
42864;SDS011;28511;42.680;23.252;2022-07-29T13:32:32;7.90;;;5.72;;
42864;SDS011;28511;42.680;23.252;2022-07-29T13:35:05;7.50;;;5.85;;
42864;SDS011;28511;42.680;23.252;2022-07-29T13:37:31;8.63;;;5.63;;
42864;SDS011;28511;42.680;23.252;2022-07-29T13:39:59;7.68;;;5.65;;
42864;SDS011;28511;42.680;23.252;2022-07-29T13:42:25;6.70;;;5.65;;
42864;SDS011;28511;42.680;23.252;2022-07-29T13:44:51;10.30;;;6.30;;
42864;SDS011;28511;42.680;23.252;2022-07-29T13:47:20;7.47;;;5.55;;
42864;SDS011;28511;42.680;23.252;2022-07-29T13:49:46;6.80;;;5.47;;
42864;SDS011;28511;42.680;23.252;2022-07-29T13:52:11;7.25;;;6.07;;
42864;SDS011;28511;42.680;23.252;2022-07-29T13:54:37;7.22;;;4.93;;
42864;SDS011;28511;42.680;23.252;2022-07-29T13:57:03;8.10;;;5.57;;
42864;SDS011;28511;42.680;23.252;2022-07-29T13:59:29;7.32;;;5.63;;
42864;SDS011;28511;42.680;23.252;2022-07-29T14:01:54;12.70;;;6.93;;
42864;SDS011;28511;42.680;23.252;2022-07-29T14:04:20;9.82;;;6.00;;
42864;SDS011;28511;42.680;23.252;2022-07-29T14:06:47;10.50;;;5.75;;
42864;SDS011;28511;42.680;23.252;2022-07-29T14:09:14;10.20;;;6.90;;
42864;SDS011;28511;42.680;23.252;2022-07-29T14:11:41;9.38;;;6.22;;
42864;SDS011;28511;42.680;23.252;2022-07-29T14:14:06;7.75;;;5.78;;
42864;SDS011;28511;42.680;23.252;2022-07-29T14:16:40;7.88;;;5.10;;
42864;SDS011;28511;42.680;23.252;2022-07-29T14:19:05;7.80;;;5.40;;
42864;SDS011;28511;42.680;23.252;2022-07-29T14:21:32;10.00;;;5.63;;
42864;SDS011;28511;42.680;23.252;2022-07-29T14:23:58;8.15;;;6.10;;
42864;SDS011;28511;42.680;23.252;2022-07-29T14:26:24;8.23;;;6.20;;
42864;SDS011;28511;42.680;23.252;2022-07-29T14:28:49;8.02;;;5.38;;
42864;SDS011;28511;42.680;23.252;2022-07-29T14:31:15;12.00;;;5.95;;
42864;SDS011;28511;42.680;23.252;2022-07-29T14:33:43;9.55;;;6.05;;
42864;SDS011;28511;42.680;23.252;2022-07-29T14:36:08;7.38;;;6.10;;
42864;SDS011;28511;42.680;23.252;2022-07-29T14:38:34;8.18;;;5.72;;
42864;SDS011;28511;42.680;23.252;2022-07-29T14:41:00;8.30;;;5.78;;
42864;SDS011;28511;42.680;23.252;2022-07-29T14:43:26;8.73;;;5.68;;
42864;SDS011;28511;42.680;23.252;2022-07-29T14:45:51;8.20;;;6.20;;
42864;SDS011;28511;42.680;23.252;2022-07-29T14:48:17;11.70;;;6.28;;
42864;SDS011;28511;42.680;23.252;2022-07-29T14:50:43;7.07;;;5.80;;
42864;SDS011;28511;42.680;23.252;2022-07-29T14:53:10;7.53;;;5.82;;
42864;SDS011;28511;42.680;23.252;2022-07-29T14:55:37;7.43;;;5.93;;
42864;SDS011;28511;42.680;23.252;2022-07-29T14:58:02;8.65;;;5.82;;
42864;SDS011;28511;42.680;23.252;2022-07-29T15:00:28;8.07;;;5.47;;
42864;SDS011;28511;42.680;23.252;2022-07-29T15:05:22;8.18;;;5.65;;
42864;SDS011;28511;42.680;23.252;2022-07-29T15:07:48;8.55;;;6.75;;
42864;SDS011;28511;42.680;23.252;2022-07-29T15:10:14;10.15;;;6.40;;